Witney, United Kingdom
Current Conditions -  °F | °C
As of 4:50 AM on Tuesday 23 Dec 2014 (Local Time) from EGVN Reporting Station
Drizzle Drizzle  
Wind Chill: 50°   Ceiling: 2800
Heat Index: 50°   Visibility: 6mi
Dew Point: 46°   Wind: 13mph
Humidity: 87%   Direction: 250°WSW
Pressure: 30.03"   Gusts: NA
Location:  51.78°N, 1.49°W
Report Text: EGVN 230450Z 25011KT 9999 -DZ FEW008 SCT013 BKN028 10/08 Q1017 GRN BECMG 9999 NSW SCT015 WHT
Loading
Personal Weather Stations






























Interactive Weather Map New forecast layout! Learn more

10-Day Weather Forecast

Advertisements
Track Severe Weather on mobile